Hitchins, Kentucky
Current Conditions -  °F | °C
As of 11:51 AM on Friday 24 Oct 2014 (Local Time) from KHTS Reporting Station
Clear Clear  
Wind Chill: 57°   Ceiling: Unl
Heat Index: 57°   Visibility: 10mi
Dew Point: 47°   Wind: 3mph
Humidity: 69%   Direction: 40°NE
Pressure: 30.12"   Gusts: NA
Location:  38.28°N, 82.92°W
Report Text: KHTS 241551Z 04003KT 10SM CLR 14/08 A3012 RMK AO2 SLP200 T01390083
Loading
Personal Weather Stations






























Interactive Weather Map
Tropical Storm Tracking
New forecast layout! Learn more

10-Day Weather Forecast

Advertisements
Track Severe Weather on mobile